createdAt,value
2018-06-21T00:01:54.681Z,90.60
2018-06-21T00:04:22.718Z,90.90
2018-06-21T00:06:50.655Z,90.90
2018-06-21T00:09:18.670Z,90.80
2018-06-21T00:11:46.589Z,91.20
2018-06-21T00:14:14.516Z,90.90
2018-06-21T00:16:42.463Z,91.20
2018-06-21T00:19:10.427Z,91.20
2018-06-21T00:21:38.310Z,91.60
2018-06-21T00:24:06.310Z,91.90
2018-06-21T00:26:34.258Z,91.60
2018-06-21T00:29:02.184Z,91.00
2018-06-21T00:31:30.074Z,91.60
2018-06-21T00:33:58.031Z,90.10
2018-06-21T00:36:25.957Z,92.10
2018-06-21T00:38:53.951Z,92.40
2018-06-21T00:43:49.810Z,92.10
2018-06-21T00:46:17.691Z,90.90
2018-06-21T00:48:45.703Z,92.60
2018-06-21T00:51:13.619Z,92.60
2018-06-21T00:53:41.551Z,92.70
2018-06-21T00:56:16.452Z,91.60
2018-06-21T00:58:45.323Z,93.00
2018-06-21T01:01:13.906Z,93.60
2018-06-21T01:03:41.846Z,93.70
2018-06-21T01:06:09.764Z,93.70
2018-06-21T01:08:37.675Z,93.70
2018-06-21T01:11:05.915Z,93.80
2018-06-21T01:16:01.843Z,94.20
2018-06-21T01:18:29.755Z,94.00
2018-06-21T01:20:57.661Z,94.20
2018-06-21T01:23:25.633Z,92.50
2018-06-21T01:25:53.550Z,92.10
2018-06-21T01:28:21.466Z,93.50
2018-06-21T01:30:49.466Z,94.00
2018-06-21T01:33:17.320Z,94.50
2018-06-21T01:35:45.269Z,94.30
2018-06-21T01:40:44.496Z,94.40
2018-06-21T01:43:12.376Z,94.10
2018-06-21T01:45:40.317Z,94.40
2018-06-21T01:48:08.277Z,93.50
2018-06-21T01:50:37.010Z,94.10
2018-06-21T01:53:05.054Z,94.20
2018-06-21T01:55:33.245Z,94.40
2018-06-21T01:58:01.187Z,94.60
2018-06-21T02:00:29.090Z,94.50
2018-06-21T02:02:57.059Z,94.40
2018-06-21T02:05:25.026Z,94.30
2018-06-21T02:07:52.978Z,94.00
2018-06-21T02:10:20.908Z,94.90
2018-06-21T02:12:48.794Z,94.50
2018-06-21T02:15:16.712Z,94.80
2018-06-21T02:17:44.588Z,94.50
2018-06-21T02:20:12.455Z,94.70
2018-06-21T02:22:40.398Z,94.80
2018-06-21T02:25:08.234Z,94.90
2018-06-21T02:30:04.315Z,94.70
2018-06-21T02:32:32.197Z,95.20
2018-06-21T02:35:00.087Z,95.20
2018-06-21T02:37:28.022Z,95.00
2018-06-21T02:39:55.989Z,95.60
2018-06-21T02:42:23.881Z,95.60
2018-06-21T02:44:51.820Z,94.50
2018-06-21T02:47:19.815Z,95.40
2018-06-21T02:49:47.768Z,94.60
2018-06-21T02:54:43.462Z,93.80
2018-06-21T02:57:11.423Z,94.60
2018-06-21T02:59:39.307Z,94.20
2018-06-21T03:02:07.205Z,95.50
2018-06-21T03:04:35.170Z,92.00
2018-06-21T03:07:03.106Z,91.60
2018-06-21T03:09:30.957Z,91.50
2018-06-21T03:11:58.848Z,94.20
2018-06-21T03:14:26.770Z,93.60
2018-06-21T03:16:55.125Z,95.10
2018-06-21T03:19:23.542Z,95.20
2018-06-21T03:21:51.501Z,95.00
2018-06-21T03:24:19.410Z,95.60
2018-06-21T03:29:15.228Z,96.30
2018-06-21T03:31:43.095Z,96.00
2018-06-21T03:34:10.973Z,95.30
2018-06-21T03:36:38.902Z,95.90
2018-06-21T03:39:06.957Z,95.30
2018-06-21T03:41:34.873Z,95.50
2018-06-21T03:44:07.655Z,95.40
2018-06-21T03:49:03.537Z,94.30
2018-06-21T03:51:31.475Z,93.60
2018-06-21T03:53:59.430Z,95.00
2018-06-21T03:56:27.413Z,94.80
2018-06-21T03:58:55.338Z,94.10
2018-06-21T04:01:23.313Z,94.30
2018-06-21T04:03:51.203Z,92.70
2018-06-21T04:06:19.093Z,93.00
2018-06-21T04:08:46.990Z,90.70
2018-06-21T04:11:14.878Z,93.50
2018-06-21T04:13:42.856Z,93.10
2018-06-21T04:16:10.718Z,93.00
2018-06-21T04:18:38.571Z,93.00
2018-06-21T04:21:07.979Z,93.20
2018-06-21T04:23:35.986Z,92.60
2018-06-21T04:26:07.995Z,93.80
2018-06-21T04:28:36.028Z,93.80
2018-06-21T04:31:03.934Z,93.60
2018-06-21T04:33:31.879Z,93.50
2018-06-21T04:35:59.772Z,93.40
2018-06-21T04:38:27.771Z,92.80
2018-06-21T04:40:55.687Z,92.70
2018-06-21T04:43:23.598Z,92.80
2018-06-21T04:45:51.541Z,92.60
2018-06-21T04:48:19.378Z,92.20
2018-06-21T04:50:47.345Z,92.00
2018-06-21T04:53:15.685Z,91.80
2018-06-21T04:55:43.666Z,88.60
2018-06-21T04:58:11.903Z,85.00
2018-06-21T05:00:39.868Z,81.20
2018-06-21T05:03:07.886Z,78.20
2018-06-21T05:05:37.589Z,74.10
2018-06-21T05:08:05.845Z,72.00
2018-06-21T05:10:33.767Z,69.00
2018-06-21T05:13:01.779Z,68.00
2018-06-21T05:15:29.754Z,65.00
2018-06-21T05:17:58.059Z,61.00
2018-06-21T05:20:26.064Z,58.20
2018-06-21T05:22:53.969Z,56.60
2018-06-21T05:25:21.818Z,56.60
2018-06-21T05:27:49.717Z,54.00
2018-06-21T05:30:18.244Z,55.10
2018-06-21T05:32:46.676Z,56.10
2018-06-21T05:35:14.724Z,54.80
2018-06-21T05:37:42.621Z,53.50
2018-06-21T05:40:35.328Z,52.20
2018-06-21T05:43:04.675Z,50.70
2018-06-21T05:45:33.828Z,50.60
2018-06-21T05:48:03.197Z,49.60
2018-06-21T05:50:32.591Z,48.30
2018-06-21T05:53:01.573Z,47.30
2018-06-21T05:55:30.474Z,49.90
2018-06-21T05:57:58.673Z,51.50
2018-06-21T06:00:26.973Z,53.80
2018-06-21T06:02:55.673Z,55.20
2018-06-21T06:05:24.151Z,55.20
2018-06-21T06:07:52.065Z,56.00
2018-06-21T06:10:20.635Z,55.70
2018-06-21T06:12:48.513Z,55.40
2018-06-21T06:17:44.181Z,57.10
2018-06-21T06:20:12.030Z,55.60
2018-06-21T06:22:39.885Z,56.70
2018-06-21T06:25:07.862Z,56.50
2018-06-21T06:27:35.713Z,56.10
2018-06-21T06:30:04.909Z,56.90
2018-06-21T06:32:32.759Z,58.00
2018-06-21T06:35:00.597Z,55.50
2018-06-21T06:37:28.452Z,54.60
2018-06-21T06:39:56.306Z,53.70
2018-06-21T06:42:24.204Z,54.40
2018-06-21T06:44:52.072Z,53.70
2018-06-21T06:47:19.949Z,52.90
2018-06-21T06:49:47.777Z,52.90
2018-06-21T06:52:15.689Z,52.20
2018-06-21T06:54:43.669Z,53.30
2018-06-21T06:57:11.630Z,52.50
2018-06-21T06:59:39.436Z,51.70
2018-06-21T07:02:07.261Z,50.50
2018-06-21T07:04:35.121Z,50.20
2018-06-21T07:07:03.048Z,50.10
2018-06-21T07:09:31.190Z,52.60
2018-06-21T07:11:59.087Z,50.30
2018-06-21T07:14:27.013Z,49.10
2018-06-21T07:16:54.893Z,47.30
2018-06-21T07:19:22.801Z,47.80
2018-06-21T07:24:18.453Z,48.90
2018-06-21T07:26:46.257Z,48.50
2018-06-21T07:29:14.132Z,48.80
2018-06-21T07:31:42.000Z,48.70
2018-06-21T07:34:09.982Z,48.20
2018-06-21T07:36:37.849Z,49.10
2018-06-21T07:39:08.215Z,48.60
2018-06-21T07:41:36.043Z,48.30
2018-06-21T07:44:04.054Z,48.30
2018-06-21T07:46:32.388Z,47.10
2018-06-21T07:49:00.320Z,47.00
2018-06-21T07:51:28.221Z,46.90
2018-06-21T07:53:56.225Z,48.60
2018-06-21T07:56:23.998Z,47.30
2018-06-21T07:58:51.809Z,47.80
2018-06-21T08:01:19.734Z,48.40
2018-06-21T08:03:47.628Z,48.60
2018-06-21T08:06:15.473Z,47.20
2018-06-21T08:08:43.308Z,49.00
2018-06-21T08:11:11.204Z,49.00
2018-06-21T08:13:39.179Z,48.90
2018-06-21T08:16:07.372Z,48.40
2018-06-21T08:18:35.249Z,47.80
2018-06-21T08:21:03.172Z,48.30
2018-06-21T08:23:31.012Z,48.60
2018-06-21T08:25:58.908Z,48.00
2018-06-21T08:28:26.716Z,48.20
2018-06-21T08:30:54.548Z,47.00
2018-06-21T08:33:22.437Z,48.30
2018-06-21T08:35:50.438Z,47.10
2018-06-21T08:38:18.306Z,47.90
2018-06-21T08:40:46.102Z,47.00
2018-06-21T08:43:13.904Z,47.00
2018-06-21T08:45:41.801Z,47.70
2018-06-21T08:48:09.945Z,46.90
2018-06-21T08:50:37.810Z,47.70
2018-06-21T08:53:05.729Z,47.40
2018-06-21T08:55:33.681Z,46.70
2018-06-21T08:58:01.564Z,45.60
2018-06-21T09:00:29.378Z,45.90
2018-06-21T09:02:57.265Z,44.80
2018-06-21T09:05:25.180Z,44.60
2018-06-21T09:07:53.118Z,45.70
2018-06-21T09:10:20.977Z,45.50
2018-06-21T09:12:48.833Z,44.40
2018-06-21T09:15:16.697Z,45.00
2018-06-21T09:17:45.227Z,45.60
2018-06-21T09:20:13.185Z,45.40
2018-06-21T09:22:41.109Z,45.90
2018-06-21T09:25:08.929Z,46.40
2018-06-21T09:27:36.812Z,46.20
2018-06-21T09:30:04.842Z,46.20
2018-06-21T09:35:00.598Z,46.30
2018-06-21T09:37:34.264Z,46.10
2018-06-21T09:40:08.022Z,47.00
2018-06-21T09:43:50.298Z,45.40
2018-06-21T09:46:14.871Z,43.70
2018-06-21T09:48:48.191Z,44.50
2018-06-21T09:51:16.102Z,46.20
2018-06-21T09:53:43.966Z,46.00
2018-06-21T09:56:11.838Z,46.20
2018-06-21T09:58:39.763Z,46.60
2018-06-21T10:01:07.616Z,50.20
2018-06-21T10:03:35.601Z,51.60
2018-06-21T10:06:03.583Z,52.40
2018-06-21T10:08:31.517Z,52.60
2018-06-21T10:10:59.385Z,52.60
2018-06-21T10:13:27.292Z,52.40
2018-06-21T10:15:55.201Z,53.20
2018-06-21T10:18:23.104Z,52.60
2018-06-21T10:20:50.946Z,51.60
2018-06-21T10:23:18.865Z,51.70
2018-06-21T10:25:46.777Z,51.50
2018-06-21T10:28:14.705Z,51.30
2018-06-21T10:30:42.526Z,50.50
2018-06-21T10:33:10.373Z,49.70
2018-06-21T10:35:38.270Z,49.70
2018-06-21T10:38:06.324Z,49.50
2018-06-21T10:40:34.241Z,49.60
2018-06-21T10:43:02.082Z,49.50
2018-06-21T10:45:30.021Z,50.40
2018-06-21T10:47:57.874Z,50.30
2018-06-21T10:50:25.733Z,51.30
2018-06-21T10:52:53.689Z,50.10
2018-06-21T10:55:21.565Z,50.00
2018-06-21T10:57:49.489Z,50.00
2018-06-21T11:00:17.518Z,50.60
2018-06-21T11:02:45.317Z,50.40
2018-06-21T11:05:13.262Z,51.70
2018-06-21T11:07:41.169Z,52.90
2018-06-21T11:12:45.722Z,53.80
2018-06-21T11:17:41.456Z,55.80
2018-06-21T11:20:09.316Z,55.60
2018-06-21T11:22:37.197Z,55.00
2018-06-21T11:25:05.375Z,54.00
2018-06-21T11:27:33.351Z,54.70
2018-06-21T11:30:01.354Z,54.90
2018-06-21T11:32:29.467Z,54.70
2018-06-21T11:35:02.033Z,54.20
2018-06-21T11:37:39.478Z,53.50
2018-06-21T11:40:07.525Z,52.10
2018-06-21T11:42:37.587Z,51.80
2018-06-21T11:47:36.066Z,50.40
2018-06-21T11:50:04.144Z,49.70
2018-06-21T11:52:31.977Z,48.30
2018-06-21T11:54:59.900Z,47.60
2018-06-21T11:57:27.789Z,47.20
2018-06-21T11:59:55.701Z,46.00
2018-06-21T12:02:23.593Z,46.10
2018-06-21T12:04:53.190Z,45.50
2018-06-21T12:07:21.013Z,44.10
2018-06-21T12:14:44.785Z,43.60
2018-06-21T12:17:12.616Z,44.40
2018-06-21T12:19:40.505Z,43.00
2018-06-21T12:22:08.366Z,41.80
2018-06-21T12:24:36.185Z,40.30
2018-06-21T12:27:04.066Z,39.00
2018-06-21T12:29:31.921Z,38.00
2018-06-21T12:32:00.070Z,36.60
2018-06-21T12:34:27.862Z,35.80
2018-06-21T12:36:56.001Z,36.80
2018-06-21T12:39:23.834Z,35.20
2018-06-21T12:41:51.660Z,35.60
2018-06-21T12:44:19.573Z,34.90
2018-06-21T12:46:47.429Z,33.30
2018-06-21T12:49:15.302Z,33.20
2018-06-21T12:51:43.132Z,32.90
2018-06-21T12:54:10.978Z,32.50
2018-06-21T12:59:06.757Z,32.50
2018-06-21T13:01:34.670Z,33.90
2018-06-21T13:04:02.586Z,32.70
2018-06-21T13:06:30.410Z,32.60
2018-06-21T13:09:15.582Z,32.90
2018-06-21T13:13:04.173Z,30.00
2018-06-21T13:15:32.161Z,30.60
2018-06-21T13:18:00.021Z,30.70
2018-06-21T13:20:28.025Z,31.50
2018-06-21T13:22:55.907Z,31.10
2018-06-21T13:25:23.766Z,30.90
2018-06-21T13:27:51.660Z,31.20
2018-06-21T13:30:19.733Z,32.30
2018-06-21T13:32:47.653Z,31.40
2018-06-21T13:35:15.724Z,29.90
2018-06-21T13:37:43.723Z,31.10
2018-06-21T13:40:11.659Z,30.50
2018-06-21T13:42:39.595Z,29.90
2018-06-21T13:45:07.577Z,29.90
2018-06-21T13:47:35.410Z,30.50
2018-06-21T13:50:03.712Z,30.30
2018-06-21T13:52:31.610Z,30.60
2018-06-21T13:54:59.471Z,29.90
2018-06-21T13:57:27.320Z,30.00
2018-06-21T13:59:55.169Z,30.80
2018-06-21T14:02:23.105Z,32.00
2018-06-21T14:04:51.031Z,30.30
2018-06-21T14:07:19.202Z,28.50
2018-06-21T14:09:47.112Z,28.70
2018-06-21T14:12:14.960Z,28.60
2018-06-21T14:14:42.847Z,28.30
2018-06-21T14:17:10.721Z,29.20
2018-06-21T14:19:38.606Z,29.30
2018-06-21T14:22:06.505Z,29.70
2018-06-21T14:24:34.458Z,30.30
2018-06-21T14:27:02.305Z,31.00
2018-06-21T14:29:30.197Z,31.00
2018-06-21T14:31:58.101Z,32.20
2018-06-21T14:34:25.932Z,32.10
2018-06-21T14:36:53.817Z,32.50
2018-06-21T14:39:21.816Z,30.80
2018-06-21T14:41:49.701Z,33.40
2018-06-21T14:44:17.708Z,33.30
2018-06-21T14:46:45.620Z,33.90
2018-06-21T14:49:13.512Z,32.70
2018-06-21T14:51:41.447Z,31.70
2018-06-21T14:54:09.340Z,33.60
2018-06-21T14:59:05.200Z,34.70
2018-06-21T15:01:33.101Z,34.30
2018-06-21T15:04:00.937Z,33.90
2018-06-21T15:06:28.789Z,34.60
2018-06-21T15:08:56.685Z,33.30
2018-06-21T15:11:24.834Z,34.10
2018-06-21T15:13:52.509Z,32.70
2018-06-21T15:16:21.601Z,33.70
2018-06-21T15:18:49.574Z,32.50
2018-06-21T15:21:17.929Z,33.20
2018-06-21T15:23:46.073Z,33.80
2018-06-21T15:26:13.992Z,35.10
2018-06-21T15:28:42.161Z,35.40
2018-06-21T15:31:10.077Z,33.20
2018-06-21T15:33:37.949Z,34.30
2018-06-21T15:36:05.907Z,34.40
2018-06-21T15:38:33.840Z,33.40
2018-06-21T15:41:01.709Z,33.90
2018-06-21T15:43:29.633Z,33.70
2018-06-21T15:45:57.504Z,34.20
2018-06-21T15:48:25.572Z,34.50
2018-06-21T15:50:53.541Z,35.50
2018-06-21T15:53:21.341Z,34.90
2018-06-21T15:55:49.161Z,34.00
2018-06-21T15:58:17.049Z,34.90
2018-06-21T16:00:44.960Z,34.20
2018-06-21T16:03:12.854Z,32.50
2018-06-21T16:05:40.702Z,32.30
2018-06-21T16:08:08.648Z,32.60
2018-06-21T16:10:36.553Z,32.50
2018-06-21T16:13:04.424Z,32.40
2018-06-21T16:15:32.301Z,31.90
2018-06-21T16:18:00.102Z,33.10
2018-06-21T16:20:27.974Z,33.30
2018-06-21T16:22:56.045Z,33.20
2018-06-21T16:27:51.686Z,33.60
2018-06-21T16:30:19.675Z,34.90
2018-06-21T16:32:47.613Z,34.60
2018-06-21T16:35:16.793Z,34.10
2018-06-21T16:37:44.773Z,33.90
2018-06-21T16:40:12.913Z,34.10
2018-06-21T16:42:41.225Z,34.10
2018-06-21T16:45:09.297Z,34.30
2018-06-21T16:47:37.176Z,34.80
2018-06-21T16:50:05.086Z,34.50
2018-06-21T16:52:32.988Z,35.40
2018-06-21T16:55:00.842Z,34.20
2018-06-21T16:57:28.745Z,35.20
2018-06-21T16:59:56.904Z,35.20
2018-06-21T17:02:24.792Z,35.70
2018-06-21T17:04:52.682Z,35.10
2018-06-21T17:07:20.659Z,36.00
2018-06-21T17:09:48.517Z,35.80
2018-06-21T17:12:16.897Z,35.40
2018-06-21T17:14:44.871Z,36.80
2018-06-21T17:17:12.756Z,36.60
2018-06-21T17:19:43.333Z,36.60
2018-06-21T17:22:11.241Z,36.20
2018-06-21T17:24:39.787Z,36.80
2018-06-21T17:27:08.237Z,37.50
2018-06-21T17:29:37.174Z,36.70
2018-06-21T17:32:05.761Z,36.60
2018-06-21T17:34:33.795Z,36.50
2018-06-21T17:37:02.566Z,37.80
2018-06-21T17:39:30.465Z,37.00
2018-06-21T17:41:58.414Z,37.00
2018-06-21T17:44:26.254Z,37.70
2018-06-21T17:46:54.513Z,38.00
2018-06-21T17:49:22.424Z,38.20
2018-06-21T17:51:50.369Z,37.90
2018-06-21T17:54:18.338Z,38.60
2018-06-21T17:56:46.199Z,38.70
2018-06-21T18:01:42.113Z,38.50
2018-06-21T18:04:10.224Z,38.80
2018-06-21T18:11:35.509Z,39.30
2018-06-21T18:14:03.580Z,39.20
2018-06-21T18:16:31.485Z,39.60
2018-06-21T18:18:59.376Z,39.70
2018-06-21T18:21:27.246Z,40.00
2018-06-21T18:23:55.141Z,40.00
2018-06-21T18:26:23.264Z,40.60
2018-06-21T18:28:51.228Z,40.50
2018-06-21T18:31:19.077Z,40.70
2018-06-21T18:33:47.150Z,40.80
2018-06-21T18:38:42.900Z,41.20
2018-06-21T18:41:10.889Z,41.50
2018-06-21T18:43:38.779Z,41.80
2018-06-21T18:46:06.688Z,41.80
2018-06-21T18:48:34.585Z,42.10
2018-06-21T18:51:02.457Z,42.40
2018-06-21T18:53:30.301Z,42.30
2018-06-21T18:55:58.177Z,42.60
2018-06-21T18:58:26.078Z,42.90
2018-06-21T19:00:53.973Z,42.90
2018-06-21T19:03:26.041Z,43.40
2018-06-21T19:11:01.049Z,44.10
2018-06-21T19:13:28.928Z,44.60
2018-06-21T19:15:58.794Z,44.70
2018-06-21T19:18:28.053Z,45.00
2018-06-21T19:20:55.978Z,45.70
2018-06-21T19:23:23.923Z,46.00
2018-06-21T19:25:51.741Z,46.00
2018-06-21T19:28:19.629Z,46.70
2018-06-21T19:30:47.577Z,47.10
2018-06-21T19:33:15.428Z,47.30
2018-06-21T19:35:43.259Z,47.10
2018-06-21T19:38:11.062Z,47.20
2018-06-21T19:43:06.857Z,48.10
2018-06-21T19:45:34.662Z,48.40
2018-06-21T19:48:02.553Z,48.70
2018-06-21T19:50:30.449Z,49.20
2018-06-21T19:52:58.349Z,48.70
2018-06-21T19:55:26.294Z,48.60
2018-06-21T19:57:54.164Z,48.90
2018-06-21T20:00:22.098Z,49.00
2018-06-21T20:02:55.712Z,49.00
2018-06-21T20:05:23.565Z,49.10
2018-06-21T20:07:51.550Z,49.00
2018-06-21T20:10:19.491Z,49.00
2018-06-21T20:12:47.345Z,48.90
2018-06-21T20:15:15.201Z,49.40
2018-06-21T20:17:43.093Z,49.40
2018-06-21T20:20:44.983Z,50.00
2018-06-21T20:23:12.916Z,49.90
2018-06-21T20:25:40.842Z,50.30
2018-06-21T20:30:36.680Z,51.10
2018-06-21T20:33:04.949Z,51.40
2018-06-21T20:35:32.882Z,51.70
2018-06-21T20:38:01.505Z,52.10
2018-06-21T20:40:29.341Z,52.30
2018-06-21T20:42:57.265Z,52.20
2018-06-21T20:45:25.198Z,52.40
2018-06-21T20:47:53.805Z,52.70
2018-06-21T20:50:21.706Z,52.70
2018-06-21T20:52:49.832Z,52.90
2018-06-21T20:55:17.732Z,53.50
2018-06-21T20:57:45.809Z,53.20
2018-06-21T21:00:13.738Z,53.90
2018-06-21T21:02:41.601Z,53.70
2018-06-21T21:05:15.156Z,54.50
2018-06-21T21:07:44.318Z,54.20
2018-06-21T21:10:13.594Z,54.80
2018-06-21T21:12:41.614Z,54.70
2018-06-21T21:15:10.557Z,55.30
2018-06-21T21:17:38.454Z,55.70
2018-06-21T21:20:07.571Z,55.90
2018-06-21T21:22:36.289Z,55.70
2018-06-21T21:25:04.249Z,55.80
2018-06-21T21:27:32.152Z,56.40
2018-06-21T21:30:00.068Z,56.00
2018-06-21T21:32:27.956Z,57.40
2018-06-21T21:34:56.966Z,56.90
2018-06-21T21:37:25.353Z,57.40
2018-06-21T21:39:59.050Z,57.80
2018-06-21T21:42:27.490Z,58.00
2018-06-21T21:47:23.187Z,57.90
2018-06-21T21:49:51.100Z,58.50
2018-06-21T21:52:20.741Z,59.40
2018-06-21T21:54:48.620Z,59.30
2018-06-21T21:57:16.585Z,59.50
2018-06-21T21:59:44.621Z,60.40
2018-06-21T22:02:12.508Z,59.70
2018-06-21T22:04:40.389Z,59.90
2018-06-21T22:07:08.256Z,59.90
2018-06-21T22:09:36.098Z,60.60
2018-06-21T22:12:06.620Z,60.20
2018-06-21T22:14:40.018Z,61.30
2018-06-21T22:17:08.421Z,61.00
2018-06-21T22:22:04.241Z,60.60
2018-06-21T22:24:36.139Z,61.30
2018-06-21T22:27:10.681Z,61.40
2018-06-21T22:29:38.681Z,62.00
2018-06-21T22:32:06.541Z,61.30
2018-06-21T22:34:34.334Z,62.50
2018-06-21T22:37:03.468Z,62.90
2018-06-21T22:39:33.701Z,62.50
2018-06-21T22:44:38.112Z,63.70
2018-06-21T22:47:06.085Z,64.40
2018-06-21T22:49:33.933Z,63.20
2018-06-21T22:52:01.766Z,64.80
2018-06-21T22:54:29.619Z,64.00
2018-06-21T22:56:57.435Z,63.70
2018-06-21T22:59:25.286Z,64.90
2018-06-21T23:01:53.360Z,65.50
2018-06-21T23:06:49.161Z,65.40
2018-06-21T23:09:17.060Z,67.30
2018-06-21T23:11:44.919Z,66.80
2018-06-21T23:14:12.774Z,66.70
2018-06-21T23:16:40.716Z,66.30
2018-06-21T23:19:25.728Z,66.60
2018-06-21T23:21:53.874Z,66.30
2018-06-21T23:24:22.339Z,67.00
2018-06-21T23:26:50.569Z,66.50
2018-06-21T23:29:18.452Z,67.60
2018-06-21T23:34:14.064Z,67.10
2018-06-21T23:36:41.861Z,66.50
2018-06-21T23:39:10.729Z,66.70
2018-06-21T23:41:38.677Z,66.90
2018-06-21T23:44:06.594Z,67.90
2018-06-21T23:46:34.705Z,67.30
2018-06-21T23:49:02.586Z,67.20
2018-06-21T23:51:30.466Z,66.90
2018-06-21T23:53:58.278Z,67.30
2018-06-21T23:56:26.097Z,68.00
